Accueil
METAR-TAF:

METAR-TAF

Aéroports :

Base aérienne de l'OTAN de Geilenkirchen

Geilenkirchen, Allemagne

latitude: 50-57-39N, longitude: 006-2-33E, altitude: 90 m

METAR: absent

Heure: 01:39 (23:39 UTC)

Prévision

Le bulletin a été fait il y a 33 heures et 39 minutes, à 14:00 UTC
Prévision valable du 22 à 15 UTC au 23 à 06 UTC
Vent 13 kt de ouest/nord-ouest avec des rafales jusqu'à 23 kt
Visibilité 10 km ou plus
Nuages épars à une hauteur de 4000 ft
Temporairement
du 22 à 15 UTC au 22 à 17 UTC
Vent 14 kt de nord-ouest avec des rafales jusqu'à 28 kt
Evoluant progressivement
du 22 à 18 UTC au 22 à 20 UTC
Vent 9 kt de ouest/nord-ouest

TAF: ETNG 221400Z 2215/2306 30013G23KT 9999 SCT040 TEMPO 2215/2217 32014G28KT BECMG 2218/2220 30009KT

Observations et prévisions météorologiques de plus de 4000 aéroports (messages METAR et TAF).

Les stations disponibles sont représentées par des disques jaunes et rouges sur la carte.

Passer la souris dessus pour voir le nom de la station.

Cliquer dessus pour voir les observations et prévisions météorologiques.

Pour changer de carte: cliquez sur les boutons verts avec une croix noire pour zoomer, sur le bouton vert avec un tiret pour effectuer un zoom arrière, ou sur les flèches vertes pour les cartes adjacentes.


METAR-TAF: